Skip Navigation LinksHome page > Weather > Current weather Skip Navigation Links

Current Weather

Tweed-New Haven, New Haven, Conn.

For information only: do not use for flight planning or navigation.
Latest weather
Observation time Saturday, July 11, 2020 10:14 PM EDT
Local time Saturday, July 11, 2020 10:25 PM EDT
Flight conditions Visual Meteorological Conditions
Winds
Wind direction South-Southwest (210°)
Wind speed 6 mph
Visibility 8 mi.
Sky condition
Ceiling 5,000 ft. broken clouds
Cloud layer few clouds 800 ft.
Cloud layer broken clouds 5,000 ft.
Cloud layer overcast 11,000 ft.
Temperature 76°F
Dewpoint 74°F
Altimeter 29.67 in.Hg
Precipitation
Rain ended 10:04 PM
Thunderstorm ended 10:08 PM
Precipitation last hour trace
Derived measurements
Relative humidity 94%
Density altitude 1775 ft.
Remarks
Fully automated report.
Automated weather observing station with precipitation discriminator.
METAR KHVN 120214Z AUTO 21005KT 8SM FEW008 BKN050 OVC110 24/23 A2967 RMK AO2 RAE04 TSE08 P0000 T02440233

Settings

Location code

InnerDrive.Weather 4.0.6770.0 Release CLR 4.0.30319.42000
Copyright ©2018 Inner Drive Technology. All rights reserved. Portions Copyright ©1986-2018 David Braverman.

Find weather

Site navigation


Skip Navigation Links

Place info

Page info

PayPal - The safer, easier way to pay online!

Return home.

Copyright ©2020 Inner Drive Technology. Purveyors of fine, hand-crafted computer software. Page printed 2020-07-12T02:25:52 UTC.